sensor_id;sensor_type;location;lat;lon;timestamp;temperature;humidity
24682;DHT22;12802;53.390;-2.328;2023-05-20T00:00:58;10.40;99.90
24682;DHT22;12802;53.390;-2.328;2023-05-20T00:03:23;10.40;99.90
24682;DHT22;12802;53.390;-2.328;2023-05-20T00:05:49;10.30;99.90
24682;DHT22;12802;53.390;-2.328;2023-05-20T00:08:16;10.30;99.90
24682;DHT22;12802;53.390;-2.328;2023-05-20T00:10:42;10.20;99.90
24682;DHT22;12802;53.390;-2.328;2023-05-20T00:13:08;10.20;99.90
24682;DHT22;12802;53.390;-2.328;2023-05-20T00:15:33;10.00;99.90
24682;DHT22;12802;53.390;-2.328;2023-05-20T00:18:02;10.00;99.90
24682;DHT22;12802;53.390;-2.328;2023-05-20T00:20:28;10.00;99.90
24682;DHT22;12802;53.390;-2.328;2023-05-20T00:22:54;10.00;99.90
24682;DHT22;12802;53.390;-2.328;2023-05-20T00:25:19;10.00;99.90
24682;DHT22;12802;53.390;-2.328;2023-05-20T00:27:45;10.00;99.90
24682;DHT22;12802;53.390;-2.328;2023-05-20T00:30:11;10.10;99.90
24682;DHT22;12802;53.390;-2.328;2023-05-20T00:32:37;10.10;99.90
24682;DHT22;12802;53.390;-2.328;2023-05-20T00:35:02;10.10;99.90
24682;DHT22;12802;53.390;-2.328;2023-05-20T00:37:28;10.10;99.90
24682;DHT22;12802;53.390;-2.328;2023-05-20T00:39:54;10.10;99.90
24682;DHT22;12802;53.390;-2.328;2023-05-20T00:44:47;10.10;99.90
24682;DHT22;12802;53.390;-2.328;2023-05-20T00:47:13;10.10;99.90
24682;DHT22;12802;53.390;-2.328;2023-05-20T00:49:39;10.00;99.90
24682;DHT22;12802;53.390;-2.328;2023-05-20T00:52:05;9.90;99.90
24682;DHT22;12802;53.390;-2.328;2023-05-20T00:54:31;9.70;99.90
24682;DHT22;12802;53.390;-2.328;2023-05-20T00:56:57;9.70;99.90
24682;DHT22;12802;53.390;-2.328;2023-05-20T00:59:24;9.70;99.90
24682;DHT22;12802;53.390;-2.328;2023-05-20T01:01:50;9.70;99.90
24682;DHT22;12802;53.390;-2.328;2023-05-20T01:04:16;9.70;99.90
24682;DHT22;12802;53.390;-2.328;2023-05-20T01:06:42;9.70;99.90
24682;DHT22;12802;53.390;-2.328;2023-05-20T01:09:08;9.70;99.90
24682;DHT22;12802;53.390;-2.328;2023-05-20T01:11:37;9.70;99.90
24682;DHT22;12802;53.390;-2.328;2023-05-20T01:14:06;9.60;99.90
24682;DHT22;12802;53.390;-2.328;2023-05-20T01:16:32;9.60;99.90
24682;DHT22;12802;53.390;-2.328;2023-05-20T01:18:59;9.50;99.90
24682;DHT22;12802;53.390;-2.328;2023-05-20T01:21:27;9.60;99.90
24682;DHT22;12802;53.390;-2.328;2023-05-20T01:23:54;9.60;99.90
24682;DHT22;12802;53.390;-2.328;2023-05-20T01:26:20;9.60;99.90
24682;DHT22;12802;53.390;-2.328;2023-05-20T01:28:46;9.60;99.90
24682;DHT22;12802;53.390;-2.328;2023-05-20T01:31:19;9.50;99.90
24682;DHT22;12802;53.390;-2.328;2023-05-20T01:33:49;9.40;99.90
24682;DHT22;12802;53.390;-2.328;2023-05-20T01:36:16;9.20;99.90
24682;DHT22;12802;53.390;-2.328;2023-05-20T01:38:43;9.10;99.90
24682;DHT22;12802;53.390;-2.328;2023-05-20T01:41:09;9.10;99.90
24682;DHT22;12802;53.390;-2.328;2023-05-20T01:43:37;9.00;99.90
24682;DHT22;12802;53.390;-2.328;2023-05-20T01:46:04;9.00;99.90
24682;DHT22;12802;53.390;-2.328;2023-05-20T01:48:30;9.00;99.90
24682;DHT22;12802;53.390;-2.328;2023-05-20T01:50:55;9.00;99.90
24682;DHT22;12802;53.390;-2.328;2023-05-20T01:53:21;9.00;99.90
24682;DHT22;12802;53.390;-2.328;2023-05-20T01:55:46;8.90;99.90
24682;DHT22;12802;53.390;-2.328;2023-05-20T01:58:12;8.90;99.90
24682;DHT22;12802;53.390;-2.328;2023-05-20T02:00:38;8.90;99.90
24682;DHT22;12802;53.390;-2.328;2023-05-20T02:03:03;8.90;99.90
24682;DHT22;12802;53.390;-2.328;2023-05-20T02:05:29;9.00;99.90
24682;DHT22;12802;53.390;-2.328;2023-05-20T02:07:55;9.00;99.90
24682;DHT22;12802;53.390;-2.328;2023-05-20T02:10:21;9.00;99.90
24682;DHT22;12802;53.390;-2.328;2023-05-20T02:12:47;9.10;99.90
24682;DHT22;12802;53.390;-2.328;2023-05-20T02:15:13;9.10;99.90
24682;DHT22;12802;53.390;-2.328;2023-05-20T02:17:40;9.20;99.90
24682;DHT22;12802;53.390;-2.328;2023-05-20T02:20:08;9.20;99.90
24682;DHT22;12802;53.390;-2.328;2023-05-20T02:22:33;9.20;99.90
24682;DHT22;12802;53.390;-2.328;2023-05-20T02:24:59;9.20;99.90
24682;DHT22;12802;53.390;-2.328;2023-05-20T02:27:24;9.00;99.90
24682;DHT22;12802;53.390;-2.328;2023-05-20T02:29:50;8.90;99.90
24682;DHT22;12802;53.390;-2.328;2023-05-20T02:32:17;8.80;99.90
24682;DHT22;12802;53.390;-2.328;2023-05-20T02:34:45;8.70;99.90
24682;DHT22;12802;53.390;-2.328;2023-05-20T02:37:11;8.80;99.90
24682;DHT22;12802;53.390;-2.328;2023-05-20T02:39:36;8.80;99.90
24682;DHT22;12802;53.390;-2.328;2023-05-20T02:42:02;8.80;99.90
24682;DHT22;12802;53.390;-2.328;2023-05-20T02:44:29;8.90;99.90
24682;DHT22;12802;53.390;-2.328;2023-05-20T02:46:55;9.00;99.90
24682;DHT22;12802;53.390;-2.328;2023-05-20T02:49:20;8.90;99.90
24682;DHT22;12802;53.390;-2.328;2023-05-20T02:51:46;8.80;99.90
24682;DHT22;12802;53.390;-2.328;2023-05-20T02:54:12;8.70;99.90
24682;DHT22;12802;53.390;-2.328;2023-05-20T02:56:38;8.60;99.90
24682;DHT22;12802;53.390;-2.328;2023-05-20T02:59:04;8.60;99.90
24682;DHT22;12802;53.390;-2.328;2023-05-20T03:01:30;8.40;99.90
24682;DHT22;12802;53.390;-2.328;2023-05-20T03:03:59;8.30;99.90
24682;DHT22;12802;53.390;-2.328;2023-05-20T03:06:24;8.30;99.90
24682;DHT22;12802;53.390;-2.328;2023-05-20T03:08:50;8.40;99.90
24682;DHT22;12802;53.390;-2.328;2023-05-20T03:11:16;8.40;99.90
24682;DHT22;12802;53.390;-2.328;2023-05-20T03:13:41;8.40;99.90
24682;DHT22;12802;53.390;-2.328;2023-05-20T03:16:07;8.40;99.90
24682;DHT22;12802;53.390;-2.328;2023-05-20T03:18:32;8.50;99.90
24682;DHT22;12802;53.390;-2.328;2023-05-20T03:20:58;8.50;99.90
24682;DHT22;12802;53.390;-2.328;2023-05-20T03:23:24;8.60;99.90
24682;DHT22;12802;53.390;-2.328;2023-05-20T03:25:51;8.60;99.90
24682;DHT22;12802;53.390;-2.328;2023-05-20T03:28:16;8.70;99.90
24682;DHT22;12802;53.390;-2.328;2023-05-20T03:30:42;8.70;99.90
24682;DHT22;12802;53.390;-2.328;2023-05-20T03:33:09;8.70;99.90
24682;DHT22;12802;53.390;-2.328;2023-05-20T03:35:35;8.70;99.90
24682;DHT22;12802;53.390;-2.328;2023-05-20T03:38:00;8.70;99.90
24682;DHT22;12802;53.390;-2.328;2023-05-20T03:40:27;8.70;99.90
24682;DHT22;12802;53.390;-2.328;2023-05-20T03:42:53;8.50;99.90
24682;DHT22;12802;53.390;-2.328;2023-05-20T03:45:20;8.40;99.90
24682;DHT22;12802;53.390;-2.328;2023-05-20T03:47:58;8.20;99.90
24682;DHT22;12802;53.390;-2.328;2023-05-20T03:50:23;8.10;99.90
24682;DHT22;12802;53.390;-2.328;2023-05-20T03:52:49;8.10;99.90
24682;DHT22;12802;53.390;-2.328;2023-05-20T03:55:17;8.00;99.90
24682;DHT22;12802;53.390;-2.328;2023-05-20T03:57:44;8.10;99.90
24682;DHT22;12802;53.390;-2.328;2023-05-20T04:00:10;8.00;99.90
24682;DHT22;12802;53.390;-2.328;2023-05-20T04:02:44;8.10;99.90
24682;DHT22;12802;53.390;-2.328;2023-05-20T04:05:14;8.10;99.90
24682;DHT22;12802;53.390;-2.328;2023-05-20T04:07:40;8.20;99.90
24682;DHT22;12802;53.390;-2.328;2023-05-20T04:10:07;8.20;99.90
24682;DHT22;12802;53.390;-2.328;2023-05-20T04:12:33;8.30;99.90
24682;DHT22;12802;53.390;-2.328;2023-05-20T04:15:01;8.30;99.90
24682;DHT22;12802;53.390;-2.328;2023-05-20T04:17:30;8.30;99.90
24682;DHT22;12802;53.390;-2.328;2023-05-20T04:19:56;8.30;99.90
24682;DHT22;12802;53.390;-2.328;2023-05-20T04:22:24;8.40;99.90
24682;DHT22;12802;53.390;-2.328;2023-05-20T04:24:49;8.30;99.90
24682;DHT22;12802;53.390;-2.328;2023-05-20T04:27:15;8.30;99.90
24682;DHT22;12802;53.390;-2.328;2023-05-20T04:29:42;8.30;99.90
24682;DHT22;12802;53.390;-2.328;2023-05-20T04:32:17;8.30;99.90
24682;DHT22;12802;53.390;-2.328;2023-05-20T04:34:46;8.30;99.90
24682;DHT22;12802;53.390;-2.328;2023-05-20T04:37:13;8.30;99.90
24682;DHT22;12802;53.390;-2.328;2023-05-20T04:39:39;8.30;99.90
24682;DHT22;12802;53.390;-2.328;2023-05-20T04:42:08;8.30;99.90
24682;DHT22;12802;53.390;-2.328;2023-05-20T04:44:34;8.30;99.90
24682;DHT22;12802;53.390;-2.328;2023-05-20T04:46:59;8.30;99.90
24682;DHT22;12802;53.390;-2.328;2023-05-20T04:49:25;8.30;99.90
24682;DHT22;12802;53.390;-2.328;2023-05-20T04:51:51;8.20;99.90
24682;DHT22;12802;53.390;-2.328;2023-05-20T04:54:17;8.20;99.90
24682;DHT22;12802;53.390;-2.328;2023-05-20T04:56:44;8.20;99.90
24682;DHT22;12802;53.390;-2.328;2023-05-20T04:59:11;8.10;99.90
24682;DHT22;12802;53.390;-2.328;2023-05-20T05:01:38;8.20;99.90
24682;DHT22;12802;53.390;-2.328;2023-05-20T05:04:04;8.20;99.90
24682;DHT22;12802;53.390;-2.328;2023-05-20T05:06:30;8.20;99.90
24682;DHT22;12802;53.390;-2.328;2023-05-20T05:08:57;8.20;99.90
24682;DHT22;12802;53.390;-2.328;2023-05-20T05:11:23;8.30;99.90
24682;DHT22;12802;53.390;-2.328;2023-05-20T05:13:49;8.30;99.90
24682;DHT22;12802;53.390;-2.328;2023-05-20T05:16:15;8.50;99.90
24682;DHT22;12802;53.390;-2.328;2023-05-20T05:18:41;8.50;99.90
24682;DHT22;12802;53.390;-2.328;2023-05-20T05:21:06;8.60;99.90
24682;DHT22;12802;53.390;-2.328;2023-05-20T05:23:34;8.70;99.90
24682;DHT22;12802;53.390;-2.328;2023-05-20T05:25:59;8.70;99.90
24682;DHT22;12802;53.390;-2.328;2023-05-20T05:28:26;8.80;99.90
24682;DHT22;12802;53.390;-2.328;2023-05-20T05:30:54;8.90;99.90
24682;DHT22;12802;53.390;-2.328;2023-05-20T05:33:24;8.90;99.90
24682;DHT22;12802;53.390;-2.328;2023-05-20T05:35:50;9.00;99.90
24682;DHT22;12802;53.390;-2.328;2023-05-20T05:38:16;9.20;99.90
24682;DHT22;12802;53.390;-2.328;2023-05-20T05:40:41;9.20;99.90
24682;DHT22;12802;53.390;-2.328;2023-05-20T05:43:08;9.30;99.90
24682;DHT22;12802;53.390;-2.328;2023-05-20T05:45:34;9.30;99.90
24682;DHT22;12802;53.390;-2.328;2023-05-20T05:47:59;9.40;99.90
24682;DHT22;12802;53.390;-2.328;2023-05-20T05:50:25;9.50;99.90
24682;DHT22;12802;53.390;-2.328;2023-05-20T05:52:51;9.50;99.90
24682;DHT22;12802;53.390;-2.328;2023-05-20T05:55:17;9.60;99.90
24682;DHT22;12802;53.390;-2.328;2023-05-20T05:57:43;9.60;99.90
24682;DHT22;12802;53.390;-2.328;2023-05-20T06:00:12;9.70;99.90
24682;DHT22;12802;53.390;-2.328;2023-05-20T06:02:44;9.60;99.90
24682;DHT22;12802;53.390;-2.328;2023-05-20T06:05:11;9.70;99.90
24682;DHT22;12802;53.390;-2.328;2023-05-20T06:07:36;9.70;99.90
24682;DHT22;12802;53.390;-2.328;2023-05-20T06:10:02;9.80;99.90
24682;DHT22;12802;53.390;-2.328;2023-05-20T06:12:28;9.80;99.90
24682;DHT22;12802;53.390;-2.328;2023-05-20T06:14:53;9.80;99.90
24682;DHT22;12802;53.390;-2.328;2023-05-20T06:17:19;9.80;99.90
24682;DHT22;12802;53.390;-2.328;2023-05-20T06:19:45;9.90;99.90
24682;DHT22;12802;53.390;-2.328;2023-05-20T06:22:11;9.90;99.90
24682;DHT22;12802;53.390;-2.328;2023-05-20T06:24:40;9.90;99.90
24682;DHT22;12802;53.390;-2.328;2023-05-20T06:27:05;9.90;99.90
24682;DHT22;12802;53.390;-2.328;2023-05-20T06:29:31;10.00;99.90
24682;DHT22;12802;53.390;-2.328;2023-05-20T06:31:58;10.10;99.90
24682;DHT22;12802;53.390;-2.328;2023-05-20T06:34:24;10.10;99.90
24682;DHT22;12802;53.390;-2.328;2023-05-20T06:36:50;10.20;99.90
24682;DHT22;12802;53.390;-2.328;2023-05-20T06:39:15;10.20;99.90
24682;DHT22;12802;53.390;-2.328;2023-05-20T06:41:43;10.20;99.90
24682;DHT22;12802;53.390;-2.328;2023-05-20T06:44:09;10.30;99.90
24682;DHT22;12802;53.390;-2.328;2023-05-20T06:46:50;10.30;99.90
24682;DHT22;12802;53.390;-2.328;2023-05-20T06:49:16;10.30;99.90
24682;DHT22;12802;53.390;-2.328;2023-05-20T06:51:42;10.30;99.90
24682;DHT22;12802;53.390;-2.328;2023-05-20T06:54:08;10.40;99.90
24682;DHT22;12802;53.390;-2.328;2023-05-20T06:56:34;10.30;99.90
24682;DHT22;12802;53.390;-2.328;2023-05-20T06:59:00;10.40;99.90
24682;DHT22;12802;53.390;-2.328;2023-05-20T07:01:26;10.40;99.90
24682;DHT22;12802;53.390;-2.328;2023-05-20T07:03:52;10.50;99.90
24682;DHT22;12802;53.390;-2.328;2023-05-20T07:06:18;10.60;99.90
24682;DHT22;12802;53.390;-2.328;2023-05-20T07:08:43;10.70;99.90
24682;DHT22;12802;53.390;-2.328;2023-05-20T07:11:10;10.70;99.90
24682;DHT22;12802;53.390;-2.328;2023-05-20T07:13:36;10.70;99.90
24682;DHT22;12802;53.390;-2.328;2023-05-20T07:16:02;10.80;99.90
24682;DHT22;12802;53.390;-2.328;2023-05-20T07:18:27;10.90;99.90
24682;DHT22;12802;53.390;-2.328;2023-05-20T07:20:55;11.00;99.90
24682;DHT22;12802;53.390;-2.328;2023-05-20T07:23:52;11.20;99.90
24682;DHT22;12802;53.390;-2.328;2023-05-20T07:26:18;11.10;99.90
24682;DHT22;12802;53.390;-2.328;2023-05-20T07:28:44;11.20;99.90
24682;DHT22;12802;53.390;-2.328;2023-05-20T07:31:11;11.30;99.90
24682;DHT22;12802;53.390;-2.328;2023-05-20T07:33:41;11.30;99.90
24682;DHT22;12802;53.390;-2.328;2023-05-20T07:36:07;11.40;99.90
24682;DHT22;12802;53.390;-2.328;2023-05-20T07:38:33;11.40;99.90
24682;DHT22;12802;53.390;-2.328;2023-05-20T07:41:03;11.50;99.90
24682;DHT22;12802;53.390;-2.328;2023-05-20T07:43:28;11.50;99.90
24682;DHT22;12802;53.390;-2.328;2023-05-20T07:45:55;11.70;99.90
24682;DHT22;12802;53.390;-2.328;2023-05-20T07:48:21;11.80;99.90
24682;DHT22;12802;53.390;-2.328;2023-05-20T07:50:47;11.80;99.90
24682;DHT22;12802;53.390;-2.328;2023-05-20T07:53:13;11.90;99.90
24682;DHT22;12802;53.390;-2.328;2023-05-20T07:55:38;11.80;99.90
24682;DHT22;12802;53.390;-2.328;2023-05-20T07:58:05;11.90;99.90
24682;DHT22;12802;53.390;-2.328;2023-05-20T08:00:33;12.00;99.90
24682;DHT22;12802;53.390;-2.328;2023-05-20T08:03:02;12.10;99.90
24682;DHT22;12802;53.390;-2.328;2023-05-20T08:05:36;12.20;99.90
24682;DHT22;12802;53.390;-2.328;2023-05-20T08:08:03;12.30;99.90
24682;DHT22;12802;53.390;-2.328;2023-05-20T08:10:39;12.40;99.90
24682;DHT22;12802;53.390;-2.328;2023-05-20T08:13:05;12.40;99.90
24682;DHT22;12802;53.390;-2.328;2023-05-20T08:15:30;12.50;99.90
24682;DHT22;12802;53.390;-2.328;2023-05-20T08:17:56;12.60;99.90
24682;DHT22;12802;53.390;-2.328;2023-05-20T08:20:22;12.70;99.90
24682;DHT22;12802;53.390;-2.328;2023-05-20T08:22:48;12.80;99.90
24682;DHT22;12802;53.390;-2.328;2023-05-20T08:25:14;12.90;99.90
24682;DHT22;12802;53.390;-2.328;2023-05-20T08:27:40;12.90;99.90
24682;DHT22;12802;53.390;-2.328;2023-05-20T08:30:06;13.10;99.90
24682;DHT22;12802;53.390;-2.328;2023-05-20T08:32:35;13.10;99.90
24682;DHT22;12802;53.390;-2.328;2023-05-20T08:35:01;13.20;99.90
24682;DHT22;12802;53.390;-2.328;2023-05-20T08:37:30;13.30;99.90
24682;DHT22;12802;53.390;-2.328;2023-05-20T08:39:55;13.40;99.90
24682;DHT22;12802;53.390;-2.328;2023-05-20T08:42:21;13.50;99.90
24682;DHT22;12802;53.390;-2.328;2023-05-20T08:44:48;13.50;99.90
24682;DHT22;12802;53.390;-2.328;2023-05-20T08:47:14;13.60;99.90
24682;DHT22;12802;53.390;-2.328;2023-05-20T08:49:40;13.70;99.90
24682;DHT22;12802;53.390;-2.328;2023-05-20T08:52:05;13.90;99.90
24682;DHT22;12802;53.390;-2.328;2023-05-20T08:54:44;14.30;99.90
24682;DHT22;12802;53.390;-2.328;2023-05-20T08:57:10;14.40;99.90
24682;DHT22;12802;53.390;-2.328;2023-05-20T08:59:47;14.50;99.90
24682;DHT22;12802;53.390;-2.328;2023-05-20T09:02:13;14.50;99.90
24682;DHT22;12802;53.390;-2.328;2023-05-20T09:04:38;14.50;99.90
24682;DHT22;12802;53.390;-2.328;2023-05-20T09:07:04;14.50;99.90
24682;DHT22;12802;53.390;-2.328;2023-05-20T09:09:31;14.60;99.90
24682;DHT22;12802;53.390;-2.328;2023-05-20T09:11:58;14.60;99.90
24682;DHT22;12802;53.390;-2.328;2023-05-20T09:14:24;14.80;99.90
24682;DHT22;12802;53.390;-2.328;2023-05-20T09:16:51;14.90;99.90
24682;DHT22;12802;53.390;-2.328;2023-05-20T09:19:18;15.00;99.90
24682;DHT22;12802;53.390;-2.328;2023-05-20T09:21:45;15.20;99.90
24682;DHT22;12802;53.390;-2.328;2023-05-20T09:24:11;15.40;99.90
24682;DHT22;12802;53.390;-2.328;2023-05-20T09:26:37;15.40;99.90
24682;DHT22;12802;53.390;-2.328;2023-05-20T09:29:03;15.50;99.90
24682;DHT22;12802;53.390;-2.328;2023-05-20T09:31:29;15.40;99.90
24682;DHT22;12802;53.390;-2.328;2023-05-20T09:33:55;15.60;99.90
24682;DHT22;12802;53.390;-2.328;2023-05-20T09:36:21;16.00;99.90
24682;DHT22;12802;53.390;-2.328;2023-05-20T09:38:47;16.10;99.90
24682;DHT22;12802;53.390;-2.328;2023-05-20T09:41:17;16.10;99.90
24682;DHT22;12802;53.390;-2.328;2023-05-20T09:43:46;16.40;99.90
24682;DHT22;12802;53.390;-2.328;2023-05-20T09:46:12;16.50;99.90
24682;DHT22;12802;53.390;-2.328;2023-05-20T09:48:38;16.70;99.90
24682;DHT22;12802;53.390;-2.328;2023-05-20T09:51:04;16.70;99.90
24682;DHT22;12802;53.390;-2.328;2023-05-20T09:53:31;16.70;99.90
24682;DHT22;12802;53.390;-2.328;2023-05-20T09:55:57;16.70;99.90
24682;DHT22;12802;53.390;-2.328;2023-05-20T09:58:22;16.80;99.90
24682;DHT22;12802;53.390;-2.328;2023-05-20T10:00:49;17.10;99.90
24682;DHT22;12802;53.390;-2.328;2023-05-20T10:03:16;17.20;99.90
24682;DHT22;12802;53.390;-2.328;2023-05-20T10:05:47;17.20;99.90
24682;DHT22;12802;53.390;-2.328;2023-05-20T10:20:54;17.40;99.90
24682;DHT22;12802;53.390;-2.328;2023-05-20T10:23:23;17.50;99.90
24682;DHT22;12802;53.390;-2.328;2023-05-20T10:25:52;17.50;99.90
24682;DHT22;12802;53.390;-2.328;2023-05-20T10:28:28;17.50;99.90
24682;DHT22;12802;53.390;-2.328;2023-05-20T10:30:55;18.10;99.90
24682;DHT22;12802;53.390;-2.328;2023-05-20T10:33:20;18.50;99.90
24682;DHT22;12802;53.390;-2.328;2023-05-20T10:35:46;18.40;99.90
24682;DHT22;12802;53.390;-2.328;2023-05-20T10:38:14;18.10;99.90
24682;DHT22;12802;53.390;-2.328;2023-05-20T10:40:40;18.00;99.90
24682;DHT22;12802;53.390;-2.328;2023-05-20T10:43:12;18.10;99.90
24682;DHT22;12802;53.390;-2.328;2023-05-20T10:45:51;18.70;99.90
24682;DHT22;12802;53.390;-2.328;2023-05-20T10:48:31;18.80;99.90
24682;DHT22;12802;53.390;-2.328;2023-05-20T10:50:58;18.60;99.90
24682;DHT22;12802;53.390;-2.328;2023-05-20T10:53:25;18.80;99.90
24682;DHT22;12802;53.390;-2.328;2023-05-20T10:55:51;18.90;99.90
24682;DHT22;12802;53.390;-2.328;2023-05-20T10:58:17;18.90;99.90
24682;DHT22;12802;53.390;-2.328;2023-05-20T11:00:49;18.90;99.90
24682;DHT22;12802;53.390;-2.328;2023-05-20T11:03:15;19.10;99.90
24682;DHT22;12802;53.390;-2.328;2023-05-20T11:05:43;19.10;99.90
24682;DHT22;12802;53.390;-2.328;2023-05-20T11:08:09;19.20;99.90
24682;DHT22;12802;53.390;-2.328;2023-05-20T11:10:35;19.40;99.90
24682;DHT22;12802;53.390;-2.328;2023-05-20T11:13:01;19.50;99.90
24682;DHT22;12802;53.390;-2.328;2023-05-20T11:15:28;19.80;99.90
24682;DHT22;12802;53.390;-2.328;2023-05-20T11:17:56;20.00;99.90
24682;DHT22;12802;53.390;-2.328;2023-05-20T11:20:22;20.20;99.90
24682;DHT22;12802;53.390;-2.328;2023-05-20T11:22:52;20.20;99.90
24682;DHT22;12802;53.390;-2.328;2023-05-20T11:25:17;20.10;99.90
24682;DHT22;12802;53.390;-2.328;2023-05-20T11:27:43;20.10;99.90
24682;DHT22;12802;53.390;-2.328;2023-05-20T11:30:12;20.00;99.90
24682;DHT22;12802;53.390;-2.328;2023-05-20T11:32:41;20.20;99.90
24682;DHT22;12802;53.390;-2.328;2023-05-20T11:35:07;19.80;99.90
24682;DHT22;12802;53.390;-2.328;2023-05-20T11:37:34;19.60;99.90
24682;DHT22;12802;53.390;-2.328;2023-05-20T11:40:04;19.50;99.90
24682;DHT22;12802;53.390;-2.328;2023-05-20T11:42:32;19.60;99.90
24682;DHT22;12802;53.390;-2.328;2023-05-20T11:45:01;20.00;99.90
24682;DHT22;12802;53.390;-2.328;2023-05-20T11:47:27;20.30;99.90
24682;DHT22;12802;53.390;-2.328;2023-05-20T11:49:52;20.00;99.90
24682;DHT22;12802;53.390;-2.328;2023-05-20T11:52:18;20.20;99.90
24682;DHT22;12802;53.390;-2.328;2023-05-20T11:54:44;20.30;99.90
24682;DHT22;12802;53.390;-2.328;2023-05-20T11:57:10;20.60;99.90
24682;DHT22;12802;53.390;-2.328;2023-05-20T11:59:35;20.50;99.90
24682;DHT22;12802;53.390;-2.328;2023-05-20T12:02:01;20.60;99.90
24682;DHT22;12802;53.390;-2.328;2023-05-20T12:04:27;20.50;99.90
24682;DHT22;12802;53.390;-2.328;2023-05-20T12:06:52;20.40;99.90
24682;DHT22;12802;53.390;-2.328;2023-05-20T12:09:18;20.20;99.90
24682;DHT22;12802;53.390;-2.328;2023-05-20T12:11:44;20.30;99.90
24682;DHT22;12802;53.390;-2.328;2023-05-20T12:14:10;20.90;99.90
24682;DHT22;12802;53.390;-2.328;2023-05-20T12:16:35;20.80;99.90
24682;DHT22;12802;53.390;-2.328;2023-05-20T12:19:01;20.90;99.90
24682;DHT22;12802;53.390;-2.328;2023-05-20T12:21:27;20.90;99.90
24682;DHT22;12802;53.390;-2.328;2023-05-20T12:23:53;21.10;99.90
24682;DHT22;12802;53.390;-2.328;2023-05-20T12:26:28;21.10;99.90
24682;DHT22;12802;53.390;-2.328;2023-05-20T12:28:54;21.50;99.90
24682;DHT22;12802;53.390;-2.328;2023-05-20T12:31:19;21.70;99.90
24682;DHT22;12802;53.390;-2.328;2023-05-20T12:33:45;21.80;99.90
24682;DHT22;12802;53.390;-2.328;2023-05-20T12:36:11;22.00;99.90
24682;DHT22;12802;53.390;-2.328;2023-05-20T12:38:37;22.10;99.90
24682;DHT22;12802;53.390;-2.328;2023-05-20T12:41:03;21.90;99.90
24682;DHT22;12802;53.390;-2.328;2023-05-20T12:43:28;21.70;99.90
24682;DHT22;12802;53.390;-2.328;2023-05-20T12:45:54;21.40;99.90
24682;DHT22;12802;53.390;-2.328;2023-05-20T12:48:20;21.30;99.90
24682;DHT22;12802;53.390;-2.328;2023-05-20T12:50:46;21.50;99.90
24682;DHT22;12802;53.390;-2.328;2023-05-20T12:53:11;21.30;99.90
24682;DHT22;12802;53.390;-2.328;2023-05-20T12:55:37;20.80;99.90
24682;DHT22;12802;53.390;-2.328;2023-05-20T12:58:03;20.80;99.90
24682;DHT22;12802;53.390;-2.328;2023-05-20T13:00:29;20.80;99.90
24682;DHT22;12802;53.390;-2.328;2023-05-20T13:02:55;20.90;99.90
24682;DHT22;12802;53.390;-2.328;2023-05-20T13:05:21;21.00;99.90
24682;DHT22;12802;53.390;-2.328;2023-05-20T13:07:47;20.90;99.90
24682;DHT22;12802;53.390;-2.328;2023-05-20T13:10:13;20.70;99.90
24682;DHT22;12802;53.390;-2.328;2023-05-20T13:12:39;20.70;99.90
24682;DHT22;12802;53.390;-2.328;2023-05-20T13:15:10;20.70;99.90
24682;DHT22;12802;53.390;-2.328;2023-05-20T13:17:36;20.90;99.90
24682;DHT22;12802;53.390;-2.328;2023-05-20T13:20:02;21.10;99.90
24682;DHT22;12802;53.390;-2.328;2023-05-20T13:22:28;21.30;99.90
24682;DHT22;12802;53.390;-2.328;2023-05-20T13:24:54;21.40;99.90
24682;DHT22;12802;53.390;-2.328;2023-05-20T13:27:19;21.20;99.90
24682;DHT22;12802;53.390;-2.328;2023-05-20T13:29:45;21.20;99.90
24682;DHT22;12802;53.390;-2.328;2023-05-20T13:32:11;21.40;99.90
24682;DHT22;12802;53.390;-2.328;2023-05-20T13:34:36;21.60;99.90
24682;DHT22;12802;53.390;-2.328;2023-05-20T13:37:03;21.60;99.90
24682;DHT22;12802;53.390;-2.328;2023-05-20T13:39:29;21.90;99.90
24682;DHT22;12802;53.390;-2.328;2023-05-20T13:41:54;22.00;99.90
24682;DHT22;12802;53.390;-2.328;2023-05-20T13:44:20;22.10;99.90
24682;DHT22;12802;53.390;-2.328;2023-05-20T13:46:46;22.20;99.90
24682;DHT22;12802;53.390;-2.328;2023-05-20T13:49:11;22.50;99.90
24682;DHT22;12802;53.390;-2.328;2023-05-20T13:51:37;22.90;99.90
24682;DHT22;12802;53.390;-2.328;2023-05-20T13:54:03;22.60;99.90
24682;DHT22;12802;53.390;-2.328;2023-05-20T13:56:28;22.90;99.90
24682;DHT22;12802;53.390;-2.328;2023-05-20T13:58:54;23.00;99.90
24682;DHT22;12802;53.390;-2.328;2023-05-20T14:01:20;22.90;99.90
24682;DHT22;12802;53.390;-2.328;2023-05-20T14:03:45;22.60;99.90
24682;DHT22;12802;53.390;-2.328;2023-05-20T14:06:11;22.40;99.90
24682;DHT22;12802;53.390;-2.328;2023-05-20T14:08:39;22.00;99.90
24682;DHT22;12802;53.390;-2.328;2023-05-20T14:11:04;22.40;99.90
24682;DHT22;12802;53.390;-2.328;2023-05-20T14:13:30;22.60;99.90
24682;DHT22;12802;53.390;-2.328;2023-05-20T14:15:56;22.00;99.90
24682;DHT22;12802;53.390;-2.328;2023-05-20T14:18:21;22.50;99.90
24682;DHT22;12802;53.390;-2.328;2023-05-20T14:20:47;22.70;99.90
24682;DHT22;12802;53.390;-2.328;2023-05-20T14:23:13;22.80;99.90
24682;DHT22;12802;53.390;-2.328;2023-05-20T14:25:38;22.60;99.90
24682;DHT22;12802;53.390;-2.328;2023-05-20T14:28:04;22.40;99.90
24682;DHT22;12802;53.390;-2.328;2023-05-20T14:30:30;22.40;99.90
24682;DHT22;12802;53.390;-2.328;2023-05-20T14:32:55;22.00;99.90
24682;DHT22;12802;53.390;-2.328;2023-05-20T14:35:21;22.70;99.90
24682;DHT22;12802;53.390;-2.328;2023-05-20T14:37:47;23.60;99.90
24682;DHT22;12802;53.390;-2.328;2023-05-20T14:40:13;23.60;99.90
24682;DHT22;12802;53.390;-2.328;2023-05-20T14:42:38;23.80;99.90
24682;DHT22;12802;53.390;-2.328;2023-05-20T14:45:04;24.00;99.90
24682;DHT22;12802;53.390;-2.328;2023-05-20T14:47:30;23.80;99.90
24682;DHT22;12802;53.390;-2.328;2023-05-20T14:49:56;23.50;99.90
24682;DHT22;12802;53.390;-2.328;2023-05-20T14:52:21;24.10;99.90
24682;DHT22;12802;53.390;-2.328;2023-05-20T14:54:47;24.50;99.90
24682;DHT22;12802;53.390;-2.328;2023-05-20T14:57:13;24.80;99.90
24682;DHT22;12802;53.390;-2.328;2023-05-20T14:59:40;23.70;99.90
24682;DHT22;12802;53.390;-2.328;2023-05-20T15:02:06;23.30;99.90
24682;DHT22;12802;53.390;-2.328;2023-05-20T15:04:32;22.50;99.90
24682;DHT22;12802;53.390;-2.328;2023-05-20T15:06:57;22.10;99.90
24682;DHT22;12802;53.390;-2.328;2023-05-20T15:09:23;22.00;99.90
24682;DHT22;12802;53.390;-2.328;2023-05-20T15:11:49;22.60;99.90
24682;DHT22;12802;53.390;-2.328;2023-05-20T15:14:15;23.10;99.90
24682;DHT22;12802;53.390;-2.328;2023-05-20T15:16:40;23.40;99.90
24682;DHT22;12802;53.390;-2.328;2023-05-20T15:19:06;23.10;99.90
24682;DHT22;12802;53.390;-2.328;2023-05-20T15:21:32;22.90;99.90
24682;DHT22;12802;53.390;-2.328;2023-05-20T15:23:57;23.40;99.90
24682;DHT22;12802;53.390;-2.328;2023-05-20T15:26:23;22.80;99.90
24682;DHT22;12802;53.390;-2.328;2023-05-20T15:28:49;22.30;99.90
24682;DHT22;12802;53.390;-2.328;2023-05-20T15:31:14;23.00;99.90
24682;DHT22;12802;53.390;-2.328;2023-05-20T15:33:40;23.50;99.90